地図

経路データ

SID SEASON NUMBER BASIN SUBBASIN NAME ISO_TIME NATURE LAT LON WMO_WIND WMO_PRES WMO_AGENCY TRACK_TYPE DIST2LAND LANDFALL IFLAG USA_AGENCY USA_ATCF_ID USA_LAT USA_LON USA_RECORD USA_STATUS USA_WIND USA_PRES USA_SSHS USA_R34_NE USA_R34_SE USA_R34_SW USA_R34_NW USA_R50_NE USA_R50_SE USA_R50_SW USA_R50_NW USA_R64_NE USA_R64_SE USA_R64_SW USA_R64_NW USA_POCI USA_ROCI USA_RMW USA_EYE TOKYO_LAT TOKYO_LON TOKYO_GRADE TOKYO_WIND TOKYO_PRES TOKYO_R50_DIR TOKYO_R50_LONG TOKYO_R50_SHORT TOKYO_R30_DIR TOKYO_R30_LONG TOKYO_R30_SHORT TOKYO_LAND CMA_LAT CMA_LON CMA_CAT CMA_WIND CMA_PRES HKO_LAT HKO_LON HKO_CAT HKO_WIND HKO_PRES NEWDELHI_LAT NEWDELHI_LON NEWDELHI_GRADE NEWDELHI_WIND NEWDELHI_PRES NEWDELHI_CI NEWDELHI_DP NEWDELHI_POCI REUNION_LAT REUNION_LON REUNION_TYPE REUNION_WIND REUNION_PRES REUNION_TNUM REUNION_CI REUNION_RMW REUNION_R34_NE REUNION_R34_SE REUNION_R34_SW REUNION_R34_NW REUNION_R50_NE REUNION_R50_SE REUNION_R50_SW REUNION_R50_NW REUNION_R64_NE REUNION_R64_SE REUNION_R64_SW REUNION_R64_NW BOM_LAT BOM_LON BOM_TYPE BOM_WIND BOM_PRES BOM_TNUM BOM_CI BOM_RMW BOM_R34_NE BOM_R34_SE BOM_R34_SW BOM_R34_NW BOM_R50_NE BOM_R50_SE BOM_R50_SW BOM_R50_NW BOM_R64_NE BOM_R64_SE BOM_R64_SW BOM_R64_NW BOM_ROCI BOM_POCI BOM_EYE BOM_POS_METHOD BOM_PRES_METHOD NADI_LAT NADI_LON NADI_CAT NADI_WIND NADI_PRES WELLINGTON_LAT WELLINGTON_LON WELLINGTON_WIND WELLINGTON_PRES DS824_LAT DS824_LON DS824_STAGE DS824_WIND DS824_PRES TD9636_LAT TD9636_LON TD9636_STAGE TD9636_WIND TD9636_PRES TD9635_LAT TD9635_LON TD9635_WIND TD9635_PRES TD9635_ROCI NEUMANN_LAT NEUMANN_LON NEUMANN_CLASS NEUMANN_WIND NEUMANN_PRES MLC_LAT MLC_LON MLC_CLASS MLC_WIND MLC_PRES USA_GUST BOM_GUST BOM_GUST_PER REUNION_GUST REUNION_GUST_PER USA_SEAHGT USA_SEARAD_NE USA_SEARAD_SE USA_SEARAD_SW USA_SEARAD_NW STORM_SPEED STORM_DIR
1921313S17061 1922 61 SI MM NOT_NAMED 1921-11-09 00:00:00 TS -17.3000 60.5000 main 430 367 _________O____ -1 -17.3000 60.5000 TC 25 12 206
1921313S17061 1922 61 SI MM NOT_NAMED 1921-11-09 03:00:00 TS -17.8576 60.2230 main 360 307 _________P____ -1 -17.8576 60.2230 TC 25 12 203
1921313S17061 1922 61 SI MM NOT_NAMED 1921-11-09 06:00:00 TS -18.4000 60.0000 main 307 266 _________O____ -1 -18.4000 60.0000 TC 25 11 197
1921313S17061 1922 61 SI MM NOT_NAMED 1921-11-09 09:00:00 TS -18.9275 59.8698 main 266 227 _________P____ -1 -18.9275 59.8698 TC 25 11 190
1921313S17061 1922 61 SI MM NOT_NAMED 1921-11-09 12:00:00 TS -19.5000 59.8000 main 227 198 _________O____ -1 -19.5000 59.8000 TC 25 13 187
1921313S17061 1922 61 SI MM NOT_NAMED 1921-11-09 15:00:00 TS -20.1925 59.7054 main 198 198 _________P____ -1 -20.1925 59.7054 TC 25 14 184
1921313S17061 1922 61 SI MM NOT_NAMED 1921-11-09 18:00:00 TS -20.9000 59.7000 main 208 208 _________O____ -1 -20.9000 59.7000 TC 25 14 175
1921313S17061 1922 61 SI MM NOT_NAMED 1921-11-09 21:00:00 TS -21.5524 59.8398 main 250 250 _________P____ -1 -21.5524 59.8398 TC 25 13 163
1921313S17061 1922 61 SI MM NOT_NAMED 1921-11-10 00:00:00 TS -22.1000 60.1000 main 306 306 _________O____ -1 -22.1000 60.1000 TC 25 11 151
1921313S17061 1922 61 SI MM NOT_NAMED 1921-11-10 03:00:00 TS -22.5024 60.4127 main 357 357 _________P____ -1 -22.5024 60.4127 TC 25 10 137
1921313S17061 1922 61 SI MM NOT_NAMED 1921-11-10 06:00:00 TS -22.8000 60.8000 main 410 410 _________O____ -1 -22.8000 60.8000 TC 25 9 127
1921313S17061 1922 61 SI MM NOT_NAMED 1921-11-10 09:00:00 TS -23.0649 61.2278 main 463 463 _________P____ -1 -23.0649 61.2278 TC 25 10 121
1921313S17061 1922 61 SI MM NOT_NAMED 1921-11-10 12:00:00 TS -23.3000 61.7000 main 517 517 _________O____ -1 -23.3000 61.7000 TC 25 10 119
1921313S17061 1922 61 SI MM NOT_NAMED 1921-11-10 15:00:00 TS -23.5499 62.1926 main 572 572 _________P____ -1 -23.5499 62.1926 TC 25 10 119
1921313S17061 1922 61 SI MM NOT_NAMED 1921-11-10 18:00:00 TS -23.8000 62.7000 main 633 633 _________O____ -1 -23.8000 62.7000 TC 25 11 118
1921313S17061 1922 61 SI MM NOT_NAMED 1921-11-10 21:00:00 TS -24.0498 63.2002 main 687 687 _________P____ -1 -24.0498 63.2002 TC 25 10 119
1921313S17061 1922 61 SI MM NOT_NAMED 1921-11-11 00:00:00 TS -24.3000 63.7000 main 748 748 _________O____ -1 -24.3000 63.7000 TC 25 10 119
1921313S17061 1922 61 SI MM NOT_NAMED 1921-11-11 03:00:00 TS -24.5498 64.2002 main 803 803 _________P____ -1 -24.5498 64.2002 TC 25 10 119
1921313S17061 1922 61 SI MM NOT_NAMED 1921-11-11 06:00:00 TS -24.8000 64.7000 main 863 863 _________O____ -1 -24.8000 64.7000 TC 25 10 119
1921313S17061 1922 61 SI MM NOT_NAMED 1921-11-11 09:00:00 TS -25.0497 65.1853 main 918 918 _________P____ -1 -25.0497 65.1853 TC 25 10 119
1921313S17061 1922 61 SI MM NOT_NAMED 1921-11-11 12:00:00 TS -25.3000 65.7000 main 978 978 _________O____ -1 -25.3000 65.7000 TC 25 11 117
1921313S17061 1922 61 SI MM NOT_NAMED 1921-11-11 15:00:00 TS -25.5573 66.2776 main 1047 1047 _________P____ -1 -25.5573 66.2776 TC 25 12 115
1921313S17061 1922 61 SI MM NOT_NAMED 1921-11-11 18:00:00 TS -25.8000 66.9000 main 1110 1110 _________O____ -1 -25.8000 66.9000 TC 25 12 112
1921313S17061 1922 61 SI MM NOT_NAMED 1921-11-11 21:00:00 TS -26.0106 67.5447 main 1173 1173 _________P____ -1 -26.0106 67.5447 TC 25 12 109
1921313S17061 1922 61 SI MM NOT_NAMED 1921-11-12 00:00:00 TS -26.2000 68.2000 main 1245 _________O____ -1 -26.2000 68.2000 TC 25 12 108

IBTrACS Databaseについて

本データベースは、米国NOAAが公開する1842年以降の世界の熱帯低気圧のベストトラックデータアーカイブInternational Best Track Archive for Climate Stewardship (IBTrACS)を、ウェブで閲覧しやすい形式に変換したものです。

最終更新日:2021-12-03